createdAt,value
2022-07-26T00:02:47.661Z,45.85
2022-07-26T00:07:49.989Z,45.84
2022-07-26T00:12:51.392Z,46.02
2022-07-26T00:17:52.800Z,45.96
2022-07-26T00:22:54.226Z,45.49
2022-07-26T00:27:55.721Z,45.71
2022-07-26T00:32:57.122Z,45.49
2022-07-26T00:37:58.581Z,45.69
2022-07-26T00:42:59.989Z,45.45
2022-07-26T00:48:01.482Z,45.42
2022-07-26T00:53:02.895Z,45.71
2022-07-26T00:58:04.316Z,45.78
2022-07-26T01:03:06.065Z,45.26
2022-07-26T01:08:07.480Z,45.49
2022-07-26T01:13:08.985Z,45.60
2022-07-26T01:18:10.391Z,45.19
2022-07-26T01:23:11.805Z,45.12
2022-07-26T01:28:19.871Z,45.35
2022-07-26T01:33:21.745Z,45.27
2022-07-26T01:38:23.145Z,45.27
2022-07-26T01:43:24.557Z,45.37
2022-07-26T01:48:26.372Z,45.00
2022-07-26T01:53:27.858Z,45.21
2022-07-26T01:58:29.325Z,45.30
2022-07-26T02:03:30.726Z,45.05
2022-07-26T02:08:32.183Z,45.09
2022-07-26T02:13:39.766Z,45.15
2022-07-26T02:18:42.804Z,45.18
2022-07-26T02:23:44.233Z,45.29
2022-07-26T02:28:45.673Z,44.88
2022-07-26T02:33:47.079Z,45.07
2022-07-26T02:38:48.477Z,45.12
2022-07-26T02:43:49.917Z,45.12
2022-07-26T02:48:51.412Z,44.62
2022-07-26T02:53:53.863Z,45.09
2022-07-26T02:58:55.452Z,44.60
2022-07-26T03:03:56.934Z,44.95
2022-07-26T03:08:58.368Z,44.38
2022-07-26T03:13:59.771Z,44.73
2022-07-26T03:19:01.443Z,44.25
2022-07-26T03:24:02.858Z,44.68
2022-07-26T03:29:04.269Z,44.05
2022-07-26T03:34:05.999Z,43.91
2022-07-26T03:39:07.658Z,44.35
2022-07-26T03:44:09.497Z,44.40
2022-07-26T03:49:16.374Z,43.93
2022-07-26T03:54:18.459Z,43.72
2022-07-26T03:59:19.942Z,43.90
2022-07-26T04:04:25.457Z,43.58
2022-07-26T04:09:28.013Z,43.55
2022-07-26T04:14:29.434Z,43.98
2022-07-26T04:19:30.838Z,43.61
2022-07-26T04:24:32.263Z,43.62
2022-07-26T04:29:33.763Z,43.78
2022-07-26T04:34:35.165Z,43.71
2022-07-26T04:39:36.576Z,43.29
2022-07-26T04:44:38.300Z,43.46
2022-07-26T04:49:39.709Z,43.56
2022-07-26T04:54:41.130Z,43.47
2022-07-26T04:59:42.540Z,43.97
2022-07-26T05:04:44.153Z,43.54
2022-07-26T05:09:45.564Z,43.45
2022-07-26T05:14:46.970Z,43.81
2022-07-26T05:19:49.272Z,43.96
2022-07-26T05:24:50.916Z,44.08
2022-07-26T05:29:52.381Z,43.74
2022-07-26T05:34:53.849Z,43.76
2022-07-26T05:39:55.299Z,43.80
2022-07-26T05:44:56.793Z,44.28
2022-07-26T05:49:59.096Z,43.83
2022-07-26T05:55:00.498Z,44.08
2022-07-26T06:00:02.014Z,44.42
2022-07-26T06:05:03.581Z,44.04
2022-07-26T06:10:05.458Z,44.02
2022-07-26T06:15:14.962Z,43.92
2022-07-26T06:20:17.180Z,43.58
2022-07-26T06:25:18.717Z,43.31
2022-07-26T06:30:20.121Z,43.33
2022-07-26T06:35:21.609Z,43.39
2022-07-26T06:40:23.018Z,43.19
2022-07-26T06:45:24.465Z,42.75
2022-07-26T06:50:25.956Z,42.86
2022-07-26T06:55:27.429Z,42.21
2022-07-26T07:00:28.848Z,42.08
2022-07-26T07:05:31.200Z,41.78
2022-07-26T07:10:32.950Z,41.78
2022-07-26T07:15:36.374Z,41.56
2022-07-26T07:20:38.923Z,41.13
2022-07-26T07:25:40.328Z,40.81
2022-07-26T07:30:41.770Z,40.63
2022-07-26T07:35:43.229Z,40.12
2022-07-26T07:40:44.735Z,40.09
2022-07-26T07:45:48.482Z,39.85
2022-07-26T07:50:50.409Z,39.62
2022-07-26T07:55:51.810Z,39.17
2022-07-26T08:00:56.849Z,38.61
2022-07-26T08:05:58.346Z,39.09
2022-07-26T08:10:59.760Z,38.81
2022-07-26T08:16:01.285Z,38.76
2022-07-26T08:21:03.626Z,37.81
2022-07-26T08:26:06.998Z,37.45
2022-07-26T08:31:08.621Z,36.56
2022-07-26T08:36:10.078Z,37.07
2022-07-26T08:41:11.568Z,36.75
2022-07-26T08:46:13.213Z,36.85
2022-07-26T08:51:14.646Z,36.67
2022-07-26T08:56:16.041Z,37.29
2022-07-26T09:01:17.539Z,37.04
2022-07-26T09:06:20.504Z,36.48
2022-07-26T09:11:24.546Z,36.83
2022-07-26T09:16:26.192Z,36.80
2022-07-26T09:21:32.360Z,37.19
2022-07-26T09:26:33.775Z,36.60
2022-07-26T09:31:36.051Z,36.68
2022-07-26T09:36:51.129Z,35.64
2022-07-26T09:42:17.535Z,36.01
2022-07-26T09:47:13.944Z,35.69
2022-07-26T09:52:16.870Z,35.97
2022-07-26T09:57:19.668Z,35.61
2022-07-26T10:02:21.171Z,35.74
2022-07-26T10:07:23.376Z,35.31
2022-07-26T10:12:30.084Z,34.79
2022-07-26T10:17:37.770Z,35.45
2022-07-26T10:22:44.207Z,35.38
2022-07-26T10:27:48.969Z,35.03
2022-07-26T10:33:00.238Z,34.92
2022-07-26T10:38:06.013Z,34.72
2022-07-26T10:43:38.953Z,34.39
2022-07-26T10:48:33.907Z,33.52
2022-07-26T10:53:35.366Z,33.83
2022-07-26T10:58:42.222Z,34.39
2022-07-26T11:03:43.838Z,34.03
2022-07-26T11:08:48.373Z,33.64
2022-07-26T11:13:49.946Z,33.81
2022-07-26T11:18:52.237Z,34.06
2022-07-26T11:23:55.965Z,33.93
2022-07-26T11:29:06.121Z,33.86
2022-07-26T11:34:11.378Z,33.37
2022-07-26T11:39:14.734Z,33.41
2022-07-26T11:44:17.215Z,33.10
2022-07-26T11:49:20.293Z,33.31
2022-07-26T11:54:28.579Z,33.33
2022-07-26T11:59:34.004Z,33.03
2022-07-26T12:04:39.756Z,32.86
2022-07-26T12:09:51.176Z,32.95
2022-07-26T12:14:56.888Z,33.14
2022-07-26T12:20:14.728Z,32.87
2022-07-26T12:25:27.795Z,32.99
2022-07-26T12:30:30.807Z,32.38
2022-07-26T12:35:35.195Z,32.34
2022-07-26T12:40:42.610Z,31.81
2022-07-26T12:45:44.065Z,31.83
2022-07-26T12:50:45.581Z,31.22
2022-07-26T12:55:46.992Z,31.25
2022-07-26T13:00:48.430Z,31.67
2022-07-26T13:05:49.858Z,31.24
2022-07-26T13:10:52.733Z,32.14
2022-07-26T13:15:56.947Z,31.16
2022-07-26T13:20:58.358Z,32.49
2022-07-26T13:25:59.768Z,31.52
2022-07-26T13:31:01.344Z,31.75
2022-07-26T13:36:02.875Z,30.90
2022-07-26T13:41:04.337Z,31.31
2022-07-26T13:46:06.055Z,33.23
2022-07-26T13:51:07.933Z,33.70
2022-07-26T13:56:09.402Z,33.07
2022-07-26T14:01:10.915Z,33.22
2022-07-26T14:06:13.442Z,33.45
2022-07-26T14:11:14.846Z,33.58
2022-07-26T14:16:16.346Z,33.72
2022-07-26T14:21:17.771Z,33.65
2022-07-26T14:26:19.286Z,33.55
2022-07-26T14:31:20.778Z,33.10
2022-07-26T14:36:22.239Z,33.45
2022-07-26T14:41:23.674Z,33.06
2022-07-26T14:46:25.152Z,33.33
2022-07-26T14:51:26.637Z,33.39
2022-07-26T14:56:28.069Z,33.65
2022-07-26T15:01:29.557Z,33.59
2022-07-26T15:06:30.978Z,33.68
2022-07-26T15:11:32.383Z,33.73
2022-07-26T15:16:33.923Z,33.80
2022-07-26T15:21:35.407Z,33.67
2022-07-26T15:26:36.809Z,34.20
2022-07-26T15:31:38.227Z,33.98
2022-07-26T15:36:39.681Z,34.11
2022-07-26T15:41:41.086Z,34.20
2022-07-26T15:46:45.529Z,34.62
2022-07-26T15:51:47.387Z,34.60
2022-07-26T15:56:49.344Z,34.58
2022-07-26T16:01:50.858Z,34.40
2022-07-26T16:06:52.342Z,34.95
2022-07-26T16:11:53.845Z,35.31
2022-07-26T16:16:56.421Z,35.22
2022-07-26T16:21:57.872Z,35.26
2022-07-26T16:26:59.359Z,35.41
2022-07-26T16:32:00.823Z,35.68
2022-07-26T16:37:02.578Z,36.04
2022-07-26T16:42:07.130Z,35.84
2022-07-26T16:47:08.959Z,35.98
2022-07-26T16:52:10.413Z,36.22
2022-07-26T16:57:11.824Z,36.31
2022-07-26T17:02:13.326Z,36.14
2022-07-26T17:07:24.980Z,36.88
2022-07-26T17:12:27.418Z,36.37
2022-07-26T17:17:28.814Z,36.86
2022-07-26T17:22:30.215Z,36.67
2022-07-26T17:27:31.639Z,36.79
2022-07-26T17:32:33.168Z,36.83
2022-07-26T17:37:37.435Z,36.66
2022-07-26T17:42:39.153Z,37.34
2022-07-26T17:47:41.351Z,36.78
2022-07-26T17:52:42.837Z,36.93
2022-07-26T17:57:44.257Z,37.25
2022-07-26T18:02:45.950Z,36.75
2022-07-26T18:07:47.441Z,36.96
2022-07-26T18:12:48.863Z,36.87
2022-07-26T18:17:50.273Z,37.11
2022-07-26T18:22:51.910Z,36.58
2022-07-26T18:27:53.760Z,37.08
2022-07-26T18:32:56.170Z,37.41
2022-07-26T18:37:57.621Z,37.06
2022-07-26T18:42:59.081Z,37.00
2022-07-26T18:48:01.147Z,37.29
2022-07-26T18:53:03.820Z,37.32
2022-07-26T18:58:07.694Z,37.42
2022-07-26T19:03:10.011Z,37.04
2022-07-26T19:08:11.417Z,37.26
2022-07-26T19:13:12.833Z,37.27
2022-07-26T19:18:17.425Z,37.27
2022-07-26T19:23:18.831Z,36.98
2022-07-26T19:28:20.232Z,37.50
2022-07-26T19:33:21.647Z,37.20
2022-07-26T19:38:23.050Z,37.07
2022-07-26T19:43:24.451Z,37.04
2022-07-26T19:48:25.877Z,37.34
2022-07-26T19:53:27.275Z,37.53
2022-07-26T19:58:29.081Z,37.09
2022-07-26T20:03:31.658Z,37.53
2022-07-26T20:08:33.069Z,37.15
2022-07-26T20:13:35.389Z,37.40
2022-07-26T20:18:36.849Z,37.21
2022-07-26T20:23:38.263Z,37.38
2022-07-26T20:28:40.248Z,37.41
2022-07-26T20:33:41.714Z,37.32
2022-07-26T20:38:44.357Z,37.22
2022-07-26T20:43:48.084Z,37.61
2022-07-26T20:48:49.532Z,37.80
2022-07-26T20:53:50.969Z,37.51
2022-07-26T20:58:52.381Z,37.57
2022-07-26T21:03:53.950Z,37.70
2022-07-26T21:08:55.459Z,37.47
2022-07-26T21:13:56.981Z,37.92
2022-07-26T21:18:58.429Z,37.47
2022-07-26T21:23:59.830Z,37.77
2022-07-26T21:29:01.230Z,37.87
2022-07-26T21:34:02.801Z,38.08
2022-07-26T21:39:04.330Z,38.11
2022-07-26T21:44:05.970Z,37.98
2022-07-26T21:49:07.520Z,37.90
2022-07-26T21:54:09.070Z,37.93
2022-07-26T21:59:10.744Z,37.56
2022-07-26T22:04:12.385Z,37.83
2022-07-26T22:09:14.128Z,37.71
2022-07-26T22:14:17.431Z,37.80
2022-07-26T22:19:19.031Z,37.80
2022-07-26T22:24:20.433Z,37.94
2022-07-26T22:29:21.839Z,37.93
2022-07-26T22:34:23.249Z,37.77
2022-07-26T22:39:24.665Z,38.02
2022-07-26T22:44:26.116Z,38.37
2022-07-26T22:49:27.738Z,38.33
2022-07-26T22:54:29.187Z,37.95
2022-07-26T22:59:30.603Z,37.83
2022-07-26T23:04:32.058Z,38.27
2022-07-26T23:09:33.553Z,38.06
2022-07-26T23:14:35.011Z,37.74
2022-07-26T23:19:36.436Z,37.99
2022-07-26T23:24:37.877Z,38.36
2022-07-26T23:29:42.285Z,38.31
2022-07-26T23:34:43.738Z,38.44
2022-07-26T23:39:45.142Z,37.89
2022-07-26T23:44:46.575Z,38.55
2022-07-26T23:49:47.973Z,38.28
2022-07-26T23:54:49.449Z,38.61
2022-07-26T23:59:50.891Z,38.67
